createdAt,value
2018-03-18T00:09:57.233Z,-5.70
2018-03-18T00:12:49.912Z,-5.70
2018-03-18T00:15:46.638Z,-5.80
2018-03-18T00:21:18.411Z,-5.80
2018-03-18T00:23:49.618Z,-5.90
2018-03-18T00:26:46.729Z,-5.80
2018-03-18T00:29:19.652Z,-5.90
2018-03-18T00:31:50.027Z,-5.90
2018-03-18T00:34:20.063Z,-5.90
2018-03-18T00:36:50.114Z,-5.90
2018-03-18T00:39:20.433Z,-5.90
2018-03-18T00:41:52.642Z,-5.90
2018-03-18T00:44:23.435Z,-5.90
2018-03-18T00:47:16.166Z,-5.90
2018-03-18T00:49:47.521Z,-6.00
2018-03-18T01:08:13.100Z,-5.90
2018-03-18T01:10:43.372Z,-6.00
2018-03-18T01:13:14.146Z,-6.00
2018-03-18T01:15:44.384Z,-6.00
2018-03-18T01:18:30.120Z,-6.00
2018-03-18T01:21:01.540Z,-6.10
2018-03-18T01:23:31.285Z,-6.00
2018-03-18T01:26:01.609Z,-6.00
2018-03-18T01:28:31.966Z,-6.00
2018-03-18T01:31:02.757Z,-6.00
2018-03-18T01:37:07.593Z,-6.10
2018-03-18T01:39:37.649Z,-6.10
2018-03-18T01:42:23.161Z,-6.10
2018-03-18T01:44:53.286Z,-6.10
2018-03-18T01:47:23.367Z,-6.10
2018-03-18T01:49:54.733Z,-6.10
2018-03-18T01:52:24.778Z,-6.10
2018-03-18T01:54:54.812Z,-6.10
2018-03-18T01:57:25.169Z,-6.10
2018-03-18T01:59:55.727Z,-6.10
2018-03-18T02:02:26.048Z,-6.10
2018-03-18T02:04:56.297Z,-6.10
2018-03-18T02:10:23.816Z,-6.10
2018-03-18T02:12:53.908Z,-6.10
2018-03-18T02:20:56.022Z,-6.10
2018-03-18T02:23:26.879Z,-6.10
2018-03-18T02:25:57.386Z,-6.10
2018-03-18T02:28:27.528Z,-6.10
2018-03-18T02:30:58.056Z,-6.20
2018-03-18T02:33:28.460Z,-6.10
2018-03-18T02:35:58.904Z,-6.10
2018-03-18T02:38:29.457Z,-6.20
2018-03-18T02:40:59.802Z,-6.10
2018-03-18T02:43:30.689Z,-6.20
2018-03-18T02:46:17.618Z,-6.20
2018-03-18T02:48:47.513Z,-6.20
2018-03-18T02:51:17.876Z,-6.20
2018-03-18T02:53:49.327Z,-6.20
2018-03-18T02:56:19.638Z,-6.20
2018-03-18T02:58:49.970Z,-6.20
2018-03-18T03:01:20.337Z,-6.20
2018-03-18T03:16:05.146Z,-6.30
2018-03-18T03:18:37.725Z,-6.30
2018-03-18T03:21:12.369Z,-6.30
2018-03-18T03:23:45.934Z,-6.30
2018-03-18T03:26:47.121Z,-6.30
2018-03-18T03:29:17.186Z,-6.30
2018-03-18T03:34:53.230Z,-6.30
2018-03-18T03:37:23.331Z,-6.30
2018-03-18T03:39:54.273Z,-6.30
2018-03-18T03:42:48.078Z,-6.40
2018-03-18T03:45:20.529Z,-6.30
2018-03-18T03:47:53.450Z,-6.30
2018-03-18T03:50:27.527Z,-6.30
2018-03-18T03:52:59.176Z,-6.30
2018-03-18T03:55:30.080Z,-6.30
2018-03-18T03:58:03.524Z,-6.30
2018-03-18T04:00:32.938Z,-6.30
2018-03-18T04:03:04.085Z,-6.30
2018-03-18T04:05:49.050Z,-6.30
2018-03-18T04:08:26.632Z,-6.30
2018-03-18T04:13:59.655Z,-6.30
2018-03-18T04:19:18.828Z,-6.30
2018-03-18T04:21:49.198Z,-6.30
2018-03-18T04:24:19.272Z,-6.30
2018-03-18T04:27:16.215Z,-6.30
2018-03-18T04:29:49.439Z,-6.30
2018-03-18T04:32:20.512Z,-6.30
2018-03-18T04:34:55.379Z,-6.30
2018-03-18T04:37:32.002Z,-6.30
2018-03-18T04:40:02.500Z,-6.30
2018-03-18T04:42:39.121Z,-6.30
2018-03-18T04:45:09.433Z,-6.30
2018-03-18T04:47:39.494Z,-6.30
2018-03-18T04:50:09.573Z,-6.20
2018-03-18T04:52:40.549Z,-6.20
2018-03-18T04:55:10.607Z,-6.30
2018-03-18T04:57:40.701Z,-6.30
2018-03-18T05:00:11.172Z,-6.30
2018-03-18T05:02:42.126Z,-6.30
2018-03-18T05:05:12.697Z,-6.30
2018-03-18T05:07:43.072Z,-6.30
2018-03-18T05:10:17.983Z,-6.30
2018-03-18T05:12:53.758Z,-6.30
2018-03-18T05:15:30.776Z,-6.30
2018-03-18T05:18:01.614Z,-6.30
2018-03-18T05:20:48.226Z,-6.30
2018-03-18T05:23:19.384Z,-6.30
2018-03-18T05:26:16.900Z,-6.30
2018-03-18T05:28:47.167Z,-6.30
2018-03-18T05:37:14.156Z,-6.30
2018-03-18T05:42:47.307Z,-6.30
2018-03-18T05:55:02.824Z,-6.20
2018-03-18T06:00:31.631Z,-6.20
2018-03-18T06:03:01.772Z,-6.10
2018-03-18T06:05:33.262Z,-6.10
2018-03-18T06:14:10.402Z,-6.20
2018-03-18T06:16:40.635Z,-6.20
2018-03-18T06:19:16.396Z,-6.20
2018-03-18T06:21:53.753Z,-6.20
2018-03-18T06:24:47.837Z,-6.20
2018-03-18T06:27:45.950Z,-6.20
2018-03-18T06:30:16.958Z,-6.20
2018-03-18T06:36:17.742Z,-6.20
2018-03-18T06:41:56.471Z,-6.10
2018-03-18T06:44:27.345Z,-6.00
2018-03-18T06:46:57.749Z,-6.00
2018-03-18T06:49:27.852Z,-6.00
2018-03-18T06:51:58.373Z,-6.00
2018-03-18T06:54:28.701Z,-6.00
2018-03-18T06:56:59.050Z,-6.10
2018-03-18T06:59:29.414Z,-6.00
2018-03-18T07:02:00.715Z,-6.00
2018-03-18T07:04:31.822Z,-6.00
2018-03-18T07:07:02.413Z,-6.10
2018-03-18T07:09:32.789Z,-6.00
2018-03-18T07:12:03.352Z,-6.00
2018-03-18T07:24:19.233Z,-6.00
2018-03-18T07:27:16.100Z,-5.90
2018-03-18T07:29:49.619Z,-6.00
2018-03-18T07:32:25.987Z,-5.90
2018-03-18T07:44:05.830Z,-5.70
2018-03-18T07:46:35.986Z,-5.70
2018-03-18T07:49:06.043Z,-5.70
2018-03-18T07:51:41.964Z,-5.70
2018-03-18T07:54:12.957Z,-5.60
2018-03-18T07:56:43.026Z,-5.60
2018-03-18T07:59:18.892Z,-5.60
2018-03-18T08:01:50.952Z,-5.60
2018-03-18T08:04:21.747Z,-5.60
2018-03-18T08:06:53.420Z,-5.60
2018-03-18T08:12:33.587Z,-5.50
2018-03-18T08:15:03.669Z,-5.50
2018-03-18T08:17:33.803Z,-5.50
2018-03-18T08:20:03.898Z,-5.40
2018-03-18T08:22:34.288Z,-5.50
2018-03-18T08:25:06.283Z,-5.40
2018-03-18T08:30:48.804Z,-5.30
2018-03-18T08:36:11.135Z,-5.30
2018-03-18T08:38:48.456Z,-5.20
2018-03-18T08:41:18.939Z,-5.10
2018-03-18T08:43:49.208Z,-5.10
2018-03-18T08:46:20.829Z,-5.10
2018-03-18T08:54:51.510Z,-5.10
2018-03-18T08:57:21.647Z,-4.90
2018-03-18T09:02:52.340Z,-4.60
2018-03-18T09:05:22.465Z,-4.50
2018-03-18T09:07:53.327Z,-4.30
2018-03-18T09:10:23.655Z,-4.40
2018-03-18T09:12:53.794Z,-4.20
2018-03-18T09:15:24.954Z,-4.20
2018-03-18T09:17:55.308Z,-4.10
2018-03-18T09:26:12.759Z,-4.40
2018-03-18T09:28:42.781Z,-4.50
2018-03-18T09:31:13.060Z,-4.50
2018-03-18T09:33:48.738Z,-4.40
2018-03-18T09:36:19.568Z,-4.50
2018-03-18T09:38:49.632Z,-4.50
2018-03-18T09:41:19.750Z,-4.60
2018-03-18T09:43:50.048Z,-4.60
2018-03-18T09:46:20.152Z,-4.50
2018-03-18T09:48:50.294Z,-4.30
2018-03-18T09:51:20.634Z,-4.20
2018-03-18T09:53:56.618Z,-4.20
2018-03-18T09:56:26.692Z,-4.10
2018-03-18T09:59:00.054Z,-4.10
2018-03-18T10:01:30.269Z,-4.10
2018-03-18T10:04:00.560Z,-4.00
2018-03-18T10:06:31.124Z,-4.00
2018-03-18T10:09:02.248Z,-4.00
2018-03-18T10:11:32.773Z,-4.00
2018-03-18T10:14:02.870Z,-4.10
2018-03-18T10:16:33.122Z,-3.90
2018-03-18T10:19:18.369Z,-4.00
2018-03-18T10:21:49.447Z,-4.00
2018-03-18T10:24:46.367Z,-4.00
2018-03-18T10:27:20.532Z,-3.40
2018-03-18T10:33:03.236Z,-3.20
2018-03-18T10:35:32.963Z,-3.40
2018-03-18T10:38:03.052Z,-3.20
2018-03-18T10:40:33.852Z,-3.30
2018-03-18T10:43:04.659Z,-3.30
2018-03-18T10:58:24.553Z,-3.20
2018-03-18T11:00:54.447Z,-3.20
2018-03-18T11:03:24.828Z,-3.20
2018-03-18T11:05:54.894Z,-3.20
2018-03-18T11:08:25.155Z,-3.20
2018-03-18T11:10:55.513Z,-3.20
2018-03-18T11:13:31.692Z,-3.30
2018-03-18T11:16:01.871Z,-3.30
2018-03-18T11:18:32.189Z,-3.30
2018-03-18T11:21:02.506Z,-3.10
2018-03-18T11:23:32.605Z,-3.00
2018-03-18T11:26:02.755Z,-2.90
2018-03-18T11:34:31.119Z,-2.90
2018-03-18T11:37:01.227Z,-3.00
2018-03-18T11:39:30.844Z,-3.20
2018-03-18T11:42:00.570Z,-3.30
2018-03-18T11:44:30.693Z,-3.20
2018-03-18T11:47:01.931Z,-3.20
2018-03-18T11:49:46.716Z,-3.20
2018-03-18T11:52:16.760Z,-3.10
2018-03-18T11:54:47.120Z,-3.10
2018-03-18T11:57:17.196Z,-3.30
2018-03-18T11:59:48.043Z,-3.50
2018-03-18T12:02:18.104Z,-3.50
2018-03-18T12:04:49.850Z,-3.50
2018-03-18T12:07:20.387Z,-3.30
2018-03-18T12:09:50.566Z,-3.40
2018-03-18T12:12:21.500Z,-3.50
2018-03-18T12:14:52.505Z,-3.50
2018-03-18T12:17:22.812Z,-3.50
2018-03-18T12:19:53.495Z,-3.40
2018-03-18T12:22:30.423Z,-3.20
2018-03-18T12:25:00.764Z,-3.20
2018-03-18T12:27:30.856Z,-3.30
2018-03-18T12:30:01.026Z,-3.10
2018-03-18T12:35:24.577Z,-3.00
2018-03-18T12:37:54.639Z,-3.10
2018-03-18T12:40:32.655Z,-3.20
2018-03-18T12:43:19.515Z,-3.20
2018-03-18T12:48:51.134Z,-3.30
2018-03-18T12:51:21.542Z,-3.40
2018-03-18T12:53:52.626Z,-3.30
2018-03-18T12:56:22.828Z,-3.30
2018-03-18T12:58:54.966Z,-3.10
2018-03-18T13:01:25.156Z,-3.10
2018-03-18T13:04:01.213Z,-3.10
2018-03-18T13:06:31.414Z,-3.10
2018-03-18T13:09:01.791Z,-3.20
2018-03-18T13:11:41.807Z,-3.20
2018-03-18T13:14:12.114Z,-3.20
2018-03-18T13:16:42.107Z,-3.10
2018-03-18T13:19:16.047Z,-3.10
2018-03-18T13:21:46.889Z,-2.90
2018-03-18T13:24:16.914Z,-2.90
2018-03-18T13:26:46.964Z,-2.80
2018-03-18T13:29:17.212Z,-2.70
2018-03-18T13:31:46.973Z,-2.80
2018-03-18T13:34:18.586Z,-2.90
2018-03-18T13:36:49.767Z,-2.90
2018-03-18T13:39:20.927Z,-2.90
2018-03-18T13:44:52.348Z,-3.10
2018-03-18T13:47:22.385Z,-3.10
2018-03-18T13:50:11.102Z,-3.00
2018-03-18T13:52:48.026Z,-3.10
2018-03-18T14:01:17.822Z,-3.00
2018-03-18T14:03:49.484Z,-3.20
2018-03-18T14:06:19.925Z,-3.10
2018-03-18T14:08:50.799Z,-3.10
2018-03-18T14:14:44.800Z,-3.00
2018-03-18T14:17:29.757Z,-3.00
2018-03-18T14:23:06.578Z,-3.30
2018-03-18T14:28:19.923Z,-3.20
2018-03-18T14:30:50.030Z,-3.20
2018-03-18T14:33:25.454Z,-3.10
2018-03-18T14:38:41.423Z,-3.10
2018-03-18T14:41:11.512Z,-3.10
2018-03-18T14:43:48.067Z,-3.20
2018-03-18T14:49:12.009Z,-3.20
2018-03-18T14:51:42.259Z,-3.30
2018-03-18T14:54:13.251Z,-3.40
2018-03-18T14:56:44.093Z,-3.70
2018-03-18T14:59:14.199Z,-3.70
2018-03-18T15:20:18.572Z,-3.80
2018-03-18T15:23:16.369Z,-3.70
2018-03-18T15:25:49.543Z,-3.70
2018-03-18T15:28:46.749Z,-3.70
2018-03-18T15:31:20.439Z,-3.80
2018-03-18T15:33:50.626Z,-3.80
2018-03-18T15:36:20.800Z,-3.80
2018-03-18T15:38:52.443Z,-3.80
2018-03-18T15:41:23.738Z,-3.90
2018-03-18T15:46:58.224Z,-3.90
2018-03-18T15:49:50.073Z,-3.90
2018-03-18T15:52:21.003Z,-4.00
2018-03-18T16:01:49.394Z,-4.10
2018-03-18T16:10:22.224Z,-4.30
2018-03-18T16:12:58.950Z,-4.30
2018-03-18T16:15:29.240Z,-4.30
2018-03-18T16:18:00.936Z,-4.40
2018-03-18T16:20:31.301Z,-4.40
2018-03-18T16:25:55.295Z,-4.50
2018-03-18T16:28:25.180Z,-4.50
2018-03-18T16:31:12.392Z,-4.50
2018-03-18T16:33:41.987Z,-4.50
2018-03-18T16:36:18.001Z,-4.50
2018-03-18T16:44:42.186Z,-4.60
2018-03-18T16:47:12.580Z,-4.70
2018-03-18T16:55:25.303Z,-4.80
2018-03-18T16:57:56.857Z,-4.80
2018-03-18T17:00:28.552Z,-4.80
2018-03-18T17:03:17.889Z,-4.80
2018-03-18T17:05:48.040Z,-4.80
2018-03-18T17:08:19.896Z,-4.80
2018-03-18T17:10:56.347Z,-4.90
2018-03-18T17:13:27.261Z,-4.80
2018-03-18T17:18:34.050Z,-4.80
2018-03-18T17:21:04.083Z,-4.80
2018-03-18T17:26:26.132Z,-4.90
2018-03-18T17:28:58.764Z,-4.90
2018-03-18T17:31:52.675Z,-4.90
2018-03-18T17:34:23.758Z,-4.90
2018-03-18T17:51:09.071Z,-5.00
2018-03-18T18:07:54.620Z,-5.10
2018-03-18T18:10:25.145Z,-5.10
2018-03-18T18:12:55.262Z,-5.10
2018-03-18T18:18:30.413Z,-5.10
2018-03-18T18:21:00.617Z,-5.10
2018-03-18T18:23:31.211Z,-5.00
2018-03-18T18:26:02.857Z,-5.00
2018-03-18T18:28:34.682Z,-5.00
2018-03-18T18:31:04.497Z,-5.10
2018-03-18T18:33:49.077Z,-5.00
2018-03-18T18:36:27.928Z,-5.00
2018-03-18T18:38:59.243Z,-5.00
2018-03-18T18:41:29.314Z,-5.00
2018-03-18T18:43:59.648Z,-5.00
2018-03-18T18:46:30.086Z,-5.00
2018-03-18T18:49:01.144Z,-5.00
2018-03-18T18:51:31.095Z,-5.00
2018-03-18T18:54:02.342Z,-5.00
2018-03-18T18:56:32.394Z,-5.00
2018-03-18T18:59:02.484Z,-5.00
2018-03-18T19:01:32.541Z,-5.00
2018-03-18T19:04:03.361Z,-5.00
2018-03-18T19:06:33.607Z,-5.10
2018-03-18T19:09:03.301Z,-5.10
2018-03-18T19:11:34.570Z,-5.10
2018-03-18T19:14:05.585Z,-5.10
2018-03-18T19:20:00.050Z,-5.10
2018-03-18T19:22:30.650Z,-5.10
2018-03-18T19:25:01.276Z,-5.10
2018-03-18T19:27:32.366Z,-5.10
2018-03-18T19:30:20.839Z,-5.10
2018-03-18T19:32:50.882Z,-5.10
2018-03-18T19:35:30.536Z,-5.10
2018-03-18T19:38:00.972Z,-5.10
2018-03-18T19:40:36.971Z,-5.10
2018-03-18T19:43:10.523Z,-5.10
2018-03-18T19:45:48.295Z,-5.00
2018-03-18T19:48:20.372Z,-5.10
2018-03-18T19:50:50.437Z,-5.20
2018-03-18T19:53:21.688Z,-5.20
2018-03-18T19:55:52.503Z,-5.20
2018-03-18T19:58:22.883Z,-5.20
2018-03-18T20:01:16.699Z,-5.20
2018-03-18T20:06:50.084Z,-5.30
2018-03-18T20:09:21.615Z,-5.30
2018-03-18T20:11:53.234Z,-5.40
2018-03-18T20:14:23.295Z,-5.40
2018-03-18T20:16:54.393Z,-5.30
2018-03-18T20:19:25.141Z,-5.30
2018-03-18T20:21:55.991Z,-5.40
2018-03-18T20:24:26.392Z,-5.40
2018-03-18T20:26:59.055Z,-5.40
2018-03-18T20:29:31.053Z,-5.40
2018-03-18T20:32:03.935Z,-5.40
2018-03-18T20:34:34.095Z,-5.40
2018-03-18T20:37:04.617Z,-5.40
2018-03-18T20:39:36.042Z,-5.40
2018-03-18T20:42:06.391Z,-5.40
2018-03-18T20:44:36.837Z,-5.40
2018-03-18T20:47:07.685Z,-5.40
2018-03-18T20:49:38.771Z,-5.40
2018-03-18T20:52:09.336Z,-5.40
2018-03-18T20:54:39.746Z,-5.40
2018-03-18T20:57:10.132Z,-5.40
2018-03-18T20:59:40.207Z,-5.50
2018-03-18T21:02:10.453Z,-5.50
2018-03-18T21:04:40.792Z,-5.50
2018-03-18T21:07:11.124Z,-5.50
2018-03-18T21:09:42.552Z,-5.50
2018-03-18T21:12:18.828Z,-5.50
2018-03-18T21:14:48.972Z,-5.50
2018-03-18T21:17:19.393Z,-5.50
2018-03-18T21:19:49.741Z,-5.50
2018-03-18T21:22:19.823Z,-5.50
2018-03-18T21:24:50.986Z,-5.50
2018-03-18T21:27:22.516Z,-5.50
2018-03-18T21:29:52.459Z,-5.50
2018-03-18T21:32:22.625Z,-5.60
2018-03-18T21:34:52.782Z,-5.50
2018-03-18T21:37:22.688Z,-5.50
2018-03-18T21:39:53.283Z,-5.60
2018-03-18T21:42:24.472Z,-5.60
2018-03-18T21:47:55.253Z,-5.60
2018-03-18T21:50:25.862Z,-5.60
2018-03-18T21:52:57.456Z,-5.60
2018-03-18T21:55:27.887Z,-5.60
2018-03-18T21:58:06.463Z,-5.60
2018-03-18T22:00:47.024Z,-5.60
2018-03-18T22:03:19.656Z,-5.60
2018-03-18T22:05:56.188Z,-5.60
2018-03-18T22:08:26.800Z,-5.60
2018-03-18T22:10:57.971Z,-5.60
2018-03-18T22:16:29.010Z,-5.60
2018-03-18T22:19:00.381Z,-5.60
2018-03-18T22:21:48.127Z,-5.60
2018-03-18T22:24:18.393Z,-5.60
2018-03-18T22:26:49.152Z,-5.60
2018-03-18T22:29:19.278Z,-5.60
2018-03-18T22:31:49.893Z,-5.60
2018-03-18T22:34:46.908Z,-5.60
2018-03-18T22:37:27.453Z,-5.60
2018-03-18T22:40:19.771Z,-5.60
2018-03-18T22:42:55.727Z,-5.60
2018-03-18T22:45:26.094Z,-5.60
2018-03-18T22:47:58.461Z,-5.60
2018-03-18T22:50:33.432Z,-5.60
2018-03-18T22:53:03.882Z,-5.60
2018-03-18T22:55:34.933Z,-5.60
2018-03-18T22:58:18.491Z,-5.60
2018-03-18T23:00:53.085Z,-5.60
2018-03-18T23:14:03.775Z,-5.60
2018-03-18T23:23:01.973Z,-5.60
2018-03-18T23:25:35.362Z,-5.70
2018-03-18T23:28:05.951Z,-5.60
2018-03-18T23:30:37.373Z,-5.60
2018-03-18T23:33:07.749Z,-5.60
2018-03-18T23:35:38.875Z,-5.60
2018-03-18T23:41:25.584Z,-5.60
2018-03-18T23:44:16.592Z,-5.60
2018-03-18T23:46:50.321Z,-5.60
2018-03-18T23:49:46.747Z,-5.70
2018-03-18T23:52:18.691Z,-5.60
2018-03-18T23:54:49.841Z,-5.60
2018-03-18T23:57:21.562Z,-5.60
